createdAt,value
2023-04-07T00:00:40.000Z,279.15
2023-04-07T00:02:46.000Z,279.15
2023-04-07T00:04:12.000Z,279.15
2023-04-07T00:06:19.000Z,279.15
2023-04-07T00:07:45.000Z,279.15
2023-04-07T00:10:01.000Z,279.09
2023-04-07T00:11:27.000Z,279.15
2023-04-07T00:13:33.000Z,279.09
2023-04-07T00:15:00.000Z,279.09
2023-04-07T00:17:06.000Z,279.09
2023-04-07T00:18:33.000Z,279.09
2023-04-07T00:20:39.000Z,279.02
2023-04-07T00:22:05.000Z,279.02
2023-04-07T00:24:11.000Z,279.02
2023-04-07T00:25:51.000Z,279.02
2023-04-07T00:27:57.000Z,279.02
2023-04-07T00:29:24.000Z,279.02
2023-04-07T00:31:30.000Z,279.09
2023-04-07T00:34:21.000Z,279.02
2023-04-07T00:35:48.000Z,279.02
2023-04-07T00:37:54.000Z,279.09
2023-04-07T00:39:20.000Z,279.09
2023-04-07T00:41:26.000Z,279.02
2023-04-07T00:42:53.000Z,279.02
2023-04-07T00:44:59.000Z,279.02
2023-04-07T00:46:25.000Z,279.02
2023-04-07T00:48:31.000Z,279.02
2023-04-07T00:49:58.000Z,278.96
2023-04-07T00:52:04.000Z,279.02
2023-04-07T00:53:31.000Z,279.02
2023-04-07T00:55:37.000Z,279.02
2023-04-07T00:57:03.000Z,279.02
2023-04-07T00:59:09.000Z,279.09
2023-04-07T01:00:36.000Z,279.09
2023-04-07T01:02:42.000Z,279.02
2023-04-07T01:04:09.000Z,279.02
2023-04-07T01:06:15.000Z,279.09
2023-04-07T01:07:42.000Z,279.02
2023-04-07T01:09:48.000Z,278.96
2023-04-07T01:12:39.000Z,279.02
2023-04-07T01:14:06.000Z,278.96
2023-04-07T01:16:12.000Z,279.02
2023-04-07T01:17:38.000Z,279.02
2023-04-07T01:19:44.000Z,278.96
2023-04-07T01:21:11.000Z,278.96
2023-04-07T01:23:17.000Z,278.96
2023-04-07T01:24:44.000Z,278.96
2023-04-07T01:26:50.000Z,279.02
2023-04-07T01:28:16.000Z,278.96
2023-04-07T01:30:22.000Z,278.9
2023-04-07T01:31:49.000Z,278.9
2023-04-07T01:33:55.000Z,278.9
2023-04-07T01:35:22.000Z,278.96
2023-04-07T01:37:28.000Z,278.96
2023-04-07T01:38:54.000Z,278.96
2023-04-07T01:41:01.000Z,278.96
2023-04-07T01:42:27.000Z,278.96
2023-04-07T01:44:33.000Z,278.9
2023-04-07T01:46:00.000Z,278.9
2023-04-07T01:48:06.000Z,278.84
2023-04-07T01:50:58.000Z,278.84
2023-04-07T01:52:24.000Z,278.9
2023-04-07T01:54:30.000Z,278.9
2023-04-07T01:55:57.000Z,278.9
2023-04-07T01:58:03.000Z,278.9
2023-04-07T01:59:29.000Z,278.84
2023-04-07T02:01:35.000Z,278.84
2023-04-07T02:03:02.000Z,278.84
2023-04-07T02:05:09.000Z,278.84
2023-04-07T02:06:35.000Z,278.84
2023-04-07T02:08:41.000Z,278.84
2023-04-07T02:10:08.000Z,278.77
2023-04-07T02:12:14.000Z,278.84
2023-04-07T02:13:41.000Z,278.77
2023-04-07T02:15:47.000Z,278.77
2023-04-07T02:17:13.000Z,278.77
2023-04-07T02:19:19.000Z,278.71
2023-04-07T02:20:46.000Z,278.71
2023-04-07T02:22:52.000Z,278.71
2023-04-07T02:24:18.000Z,278.77
2023-04-07T02:26:24.000Z,278.77
2023-04-07T02:29:15.000Z,278.77
2023-04-07T02:30:42.000Z,278.77
2023-04-07T02:32:48.000Z,278.71
2023-04-07T02:34:15.000Z,278.71
2023-04-07T02:36:21.000Z,278.71
2023-04-07T02:37:47.000Z,278.71
2023-04-07T02:39:53.000Z,278.71
2023-04-07T02:41:20.000Z,278.71
2023-04-07T02:43:26.000Z,278.71
2023-04-07T02:44:52.000Z,278.71
2023-04-07T02:46:59.000Z,278.65
2023-04-07T02:48:25.000Z,278.71
2023-04-07T02:50:31.000Z,278.71
2023-04-07T02:51:58.000Z,278.71
2023-04-07T02:54:04.000Z,278.71
2023-04-07T02:55:30.000Z,278.71
2023-04-07T02:57:36.000Z,278.71
2023-04-07T02:59:03.000Z,278.71
2023-04-07T03:01:09.000Z,278.65
2023-04-07T03:02:36.000Z,278.65
2023-04-07T03:04:42.000Z,278.65
2023-04-07T03:07:33.000Z,278.65
2023-04-07T03:09:00.000Z,278.65
2023-04-07T03:11:06.000Z,278.65
2023-04-07T03:12:32.000Z,278.65
2023-04-07T03:14:38.000Z,278.59
2023-04-07T03:16:05.000Z,278.59
2023-04-07T03:18:11.000Z,278.59
2023-04-07T03:19:37.000Z,278.59
2023-04-07T03:21:43.000Z,278.59
2023-04-07T03:23:10.000Z,278.65
2023-04-07T03:25:16.000Z,278.59
2023-04-07T03:26:43.000Z,278.59
2023-04-07T03:28:49.000Z,278.59
2023-04-07T03:30:15.000Z,278.59
2023-04-07T03:32:21.000Z,278.59
2023-04-07T03:33:48.000Z,278.59
2023-04-07T03:35:54.000Z,278.59
2023-04-07T03:37:21.000Z,278.52
2023-04-07T03:39:27.000Z,278.59
2023-04-07T03:40:53.000Z,278.52
2023-04-07T03:43:00.000Z,278.52
2023-04-07T03:45:51.000Z,278.52
2023-04-07T03:47:18.000Z,278.52
2023-04-07T03:49:24.000Z,278.46
2023-04-07T03:50:50.000Z,278.52
2023-04-07T03:52:56.000Z,278.52
2023-04-07T03:54:23.000Z,278.52
2023-04-07T03:56:29.000Z,278.46
2023-04-07T03:57:55.000Z,278.46
2023-04-07T04:00:02.000Z,278.46
2023-04-07T04:01:28.000Z,278.46
2023-04-07T04:03:35.000Z,278.46
2023-04-07T04:05:01.000Z,278.46
2023-04-07T04:07:07.000Z,278.46
2023-04-07T04:08:34.000Z,278.4
2023-04-07T04:10:40.000Z,278.4
2023-04-07T04:12:07.000Z,278.46
2023-04-07T04:14:13.000Z,278.46
2023-04-07T04:15:39.000Z,278.4
2023-04-07T04:17:45.000Z,278.4
2023-04-07T04:19:12.000Z,278.34
2023-04-07T04:21:18.000Z,278.4
2023-04-07T04:24:09.000Z,278.4
2023-04-07T04:25:36.000Z,278.34
2023-04-07T04:27:42.000Z,278.34
2023-04-07T04:29:09.000Z,278.34
2023-04-07T04:31:15.000Z,278.34
2023-04-07T04:32:41.000Z,278.27
2023-04-07T04:34:47.000Z,278.27
2023-04-07T04:36:14.000Z,278.27
2023-04-07T04:38:20.000Z,278.27
2023-04-07T04:39:47.000Z,278.27
2023-04-07T04:41:53.000Z,278.34
2023-04-07T04:43:19.000Z,278.34
2023-04-07T04:45:25.000Z,278.34
2023-04-07T04:46:52.000Z,278.27
2023-04-07T04:48:58.000Z,278.27
2023-04-07T04:50:25.000Z,278.27
2023-04-07T04:52:31.000Z,278.27
2023-04-07T04:53:57.000Z,278.34
2023-04-07T04:56:03.000Z,278.27
2023-04-07T04:57:30.000Z,278.27
2023-04-07T04:59:36.000Z,278.27
2023-04-07T05:02:27.000Z,278.27
2023-04-07T05:03:54.000Z,278.27
2023-04-07T05:06:00.000Z,278.34
2023-04-07T05:07:27.000Z,278.34
2023-04-07T05:09:33.000Z,278.34
2023-04-07T05:10:59.000Z,278.27
2023-04-07T05:13:05.000Z,278.27
2023-04-07T05:14:32.000Z,278.27
2023-04-07T05:16:38.000Z,278.27
2023-04-07T05:18:05.000Z,278.27
2023-04-07T05:20:11.000Z,278.27
2023-04-07T05:21:37.000Z,278.27
2023-04-07T05:23:43.000Z,278.27
2023-04-07T05:25:10.000Z,278.27
2023-04-07T05:27:16.000Z,278.21
2023-04-07T05:28:42.000Z,278.27
2023-04-07T05:30:48.000Z,278.27
2023-04-07T05:32:15.000Z,278.27
2023-04-07T05:34:21.000Z,278.21
2023-04-07T05:35:48.000Z,278.21
2023-04-07T05:37:54.000Z,278.27
2023-04-07T05:40:45.000Z,278.21
2023-04-07T05:42:12.000Z,278.27
2023-04-07T05:44:18.000Z,278.27
2023-04-07T05:45:45.000Z,278.34
2023-04-07T05:47:51.000Z,278.27
2023-04-07T05:49:17.000Z,278.27
2023-04-07T05:51:24.000Z,278.34
2023-04-07T05:52:51.000Z,278.34
2023-04-07T05:54:57.000Z,278.34
2023-04-07T05:56:24.000Z,278.34
2023-04-07T05:58:30.000Z,278.34
2023-04-07T05:59:56.000Z,278.34
2023-04-07T06:02:02.000Z,278.34
2023-04-07T06:03:29.000Z,278.34
2023-04-07T06:05:36.000Z,278.34
2023-04-07T06:07:02.000Z,278.34
2023-04-07T06:09:09.000Z,278.34
2023-04-07T06:10:35.000Z,278.4
2023-04-07T06:12:41.000Z,278.4
2023-04-07T06:14:08.000Z,278.46
2023-04-07T06:16:14.000Z,278.4
2023-04-07T06:19:08.000Z,278.46
2023-04-07T06:20:34.000Z,278.46
2023-04-07T06:22:41.000Z,278.46
2023-04-07T06:24:07.000Z,278.46
2023-04-07T06:26:13.000Z,278.46
2023-04-07T06:27:40.000Z,278.46
2023-04-07T06:29:46.000Z,278.46
2023-04-07T06:31:12.000Z,278.52
2023-04-07T06:33:18.000Z,278.52
2023-04-07T06:34:45.000Z,278.52
2023-04-07T06:36:51.000Z,278.52
2023-04-07T06:38:17.000Z,278.52
2023-04-07T06:40:23.000Z,278.52
2023-04-07T06:41:50.000Z,278.52
2023-04-07T06:43:56.000Z,278.59
2023-04-07T06:45:23.000Z,278.59
2023-04-07T06:47:29.000Z,278.59
2023-04-07T06:48:55.000Z,278.59
2023-04-07T06:51:01.000Z,278.59
2023-04-07T06:52:28.000Z,278.59
2023-04-07T06:54:34.000Z,278.59
2023-04-07T06:57:25.000Z,278.59
2023-04-07T06:58:52.000Z,278.59
2023-04-07T07:00:58.000Z,278.59
2023-04-07T07:02:24.000Z,278.59
2023-04-07T07:04:31.000Z,278.59
2023-04-07T07:05:57.000Z,278.65
2023-04-07T07:08:04.000Z,278.65
2023-04-07T07:09:30.000Z,278.71
2023-04-07T07:11:36.000Z,278.71
2023-04-07T07:13:03.000Z,278.71
2023-04-07T07:15:09.000Z,278.71
2023-04-07T07:16:35.000Z,278.71
2023-04-07T07:18:41.000Z,278.71
2023-04-07T07:20:08.000Z,278.71
2023-04-07T07:22:14.000Z,278.71
2023-04-07T07:23:41.000Z,278.77
2023-04-07T07:25:47.000Z,278.71
2023-04-07T07:27:13.000Z,278.77
2023-04-07T07:29:19.000Z,278.71
2023-04-07T07:30:46.000Z,278.77
2023-04-07T07:32:52.000Z,278.77
2023-04-07T07:35:43.000Z,278.77
2023-04-07T07:37:10.000Z,278.84
2023-04-07T07:39:16.000Z,278.77
2023-04-07T07:40:42.000Z,278.84
2023-04-07T07:42:48.000Z,278.84
2023-04-07T07:44:15.000Z,278.9
2023-04-07T07:46:21.000Z,278.9
2023-04-07T07:47:48.000Z,278.9
2023-04-07T07:49:54.000Z,278.9
2023-04-07T07:51:20.000Z,278.96
2023-04-07T07:53:26.000Z,278.96
2023-04-07T07:54:53.000Z,278.96
2023-04-07T07:56:59.000Z,278.96
2023-04-07T07:58:25.000Z,278.96
2023-04-07T08:00:32.000Z,278.96
2023-04-07T08:01:58.000Z,278.96
2023-04-07T08:04:04.000Z,278.96
2023-04-07T08:05:31.000Z,278.96
2023-04-07T08:07:37.000Z,279.02
2023-04-07T08:09:04.000Z,279.02
2023-04-07T08:11:10.000Z,279.09
2023-04-07T08:14:01.000Z,279.09
2023-04-07T08:15:28.000Z,279.09
2023-04-07T08:17:34.000Z,279.02
2023-04-07T08:19:00.000Z,279.09
2023-04-07T08:21:06.000Z,279.09
2023-04-07T08:22:33.000Z,279.15
2023-04-07T08:24:39.000Z,279.15
2023-04-07T08:26:05.000Z,279.15
2023-04-07T08:28:12.000Z,279.21
2023-04-07T08:29:38.000Z,279.21
2023-04-07T08:31:44.000Z,279.27
2023-04-07T08:33:11.000Z,279.27
2023-04-07T08:35:17.000Z,279.34
2023-04-07T08:36:44.000Z,279.34
2023-04-07T08:38:50.000Z,279.27
2023-04-07T08:40:16.000Z,279.34
2023-04-07T08:42:22.000Z,279.34
2023-04-07T08:43:49.000Z,279.34
2023-04-07T08:45:55.000Z,279.4
2023-04-07T08:47:22.000Z,279.34
2023-04-07T08:49:28.000Z,279.4
2023-04-07T08:52:19.000Z,279.4
2023-04-07T08:53:46.000Z,279.46
2023-04-07T08:55:52.000Z,279.52
2023-04-07T08:57:19.000Z,279.52
2023-04-07T08:59:25.000Z,279.52
2023-04-07T09:00:51.000Z,279.52
2023-04-07T09:02:57.000Z,279.52
2023-04-07T09:04:24.000Z,279.52
2023-04-07T09:06:30.000Z,279.59
2023-04-07T09:07:57.000Z,279.59
2023-04-07T09:10:03.000Z,279.65
2023-04-07T09:11:29.000Z,279.59
2023-04-07T09:13:35.000Z,279.65
2023-04-07T09:15:02.000Z,279.71
2023-04-07T09:17:08.000Z,279.71
2023-04-07T09:18:35.000Z,279.77
2023-04-07T09:20:41.000Z,279.84
2023-04-07T09:22:07.000Z,279.84
2023-04-07T09:24:13.000Z,279.84
2023-04-07T09:25:40.000Z,279.84
2023-04-07T09:27:46.000Z,279.9
2023-04-07T09:30:37.000Z,279.9
2023-04-07T09:32:04.000Z,279.9
2023-04-07T09:34:10.000Z,279.96
2023-04-07T09:35:36.000Z,279.9
2023-04-07T09:37:43.000Z,279.9
2023-04-07T09:39:09.000Z,279.9
2023-04-07T09:41:15.000Z,279.9
2023-04-07T09:42:42.000Z,279.96
2023-04-07T09:44:48.000Z,279.96
2023-04-07T09:46:15.000Z,279.96
2023-04-07T09:48:21.000Z,279.96
2023-04-07T09:49:47.000Z,280.02
2023-04-07T09:51:53.000Z,280.02
2023-04-07T09:53:20.000Z,280.02
2023-04-07T09:55:26.000Z,280.02
2023-04-07T09:56:53.000Z,280.09
2023-04-07T09:58:59.000Z,280.09
2023-04-07T10:00:25.000Z,280.09
2023-04-07T10:02:31.000Z,280.15
2023-04-07T10:03:58.000Z,280.21
2023-04-07T10:06:04.000Z,280.27
2023-04-07T10:08:56.000Z,280.27
2023-04-07T10:10:22.000Z,280.27
2023-04-07T10:12:29.000Z,280.34
2023-04-07T10:13:55.000Z,280.4
2023-04-07T10:16:01.000Z,280.4
2023-04-07T10:17:28.000Z,280.4
2023-04-07T10:19:34.000Z,280.4
2023-04-07T10:21:00.000Z,280.4
2023-04-07T10:23:06.000Z,280.46
2023-04-07T10:24:33.000Z,280.52
2023-04-07T10:26:39.000Z,280.52
2023-04-07T10:28:06.000Z,280.46
2023-04-07T10:30:12.000Z,280.52
2023-04-07T10:31:39.000Z,280.52
2023-04-07T10:33:45.000Z,280.52
2023-04-07T10:35:12.000Z,280.59
2023-04-07T10:37:18.000Z,280.59
2023-04-07T10:38:45.000Z,280.65
2023-04-07T10:40:51.000Z,280.71
2023-04-07T10:42:17.000Z,280.65
2023-04-07T10:44:23.000Z,280.71
2023-04-07T10:47:15.000Z,280.84
2023-04-07T10:48:41.000Z,280.96
2023-04-07T10:50:47.000Z,281.02
2023-04-07T10:52:14.000Z,281.09
2023-04-07T10:54:20.000Z,281.09
2023-04-07T10:55:46.000Z,281.09
2023-04-07T10:57:52.000Z,281.09
2023-04-07T10:59:19.000Z,281.09
2023-04-07T11:01:25.000Z,281.09
2023-04-07T11:02:52.000Z,281.09
2023-04-07T11:04:58.000Z,281.15
2023-04-07T11:06:25.000Z,281.15
2023-04-07T11:08:31.000Z,281.09
2023-04-07T11:09:57.000Z,281.09
2023-04-07T11:12:03.000Z,281.09
2023-04-07T11:13:30.000Z,281.09
2023-04-07T11:15:36.000Z,281.09
2023-04-07T11:17:05.000Z,281.15
2023-04-07T11:19:11.000Z,281.15
2023-04-07T11:20:37.000Z,281.21
2023-04-07T11:22:44.000Z,281.34
2023-04-07T11:25:35.000Z,281.4
2023-04-07T11:27:01.000Z,281.4
2023-04-07T11:29:07.000Z,281.4
2023-04-07T11:30:34.000Z,281.46
2023-04-07T11:32:40.000Z,281.46
2023-04-07T11:34:06.000Z,281.52
2023-04-07T11:36:12.000Z,281.4
2023-04-07T11:37:39.000Z,281.4
2023-04-07T11:39:45.000Z,281.4
2023-04-07T11:41:11.000Z,281.34
2023-04-07T11:43:18.000Z,281.34
2023-04-07T11:44:44.000Z,281.34
2023-04-07T11:46:50.000Z,281.4
2023-04-07T11:48:17.000Z,281.4
2023-04-07T11:50:23.000Z,281.27
2023-04-07T11:51:50.000Z,281.21
2023-04-07T11:53:56.000Z,281.21
2023-04-07T11:55:22.000Z,281.21
2023-04-07T11:57:28.000Z,281.27
2023-04-07T11:58:55.000Z,281.34
2023-04-07T12:01:01.000Z,281.27
2023-04-07T12:03:52.000Z,281.27
2023-04-07T12:05:19.000Z,281.21
2023-04-07T12:07:25.000Z,281.4
2023-04-07T12:08:52.000Z,281.4
2023-04-07T12:10:58.000Z,281.4
2023-04-07T12:12:25.000Z,281.4
2023-04-07T12:14:31.000Z,281.4
2023-04-07T12:15:57.000Z,281.4
2023-04-07T12:18:04.000Z,281.46
2023-04-07T12:19:30.000Z,281.4
2023-04-07T12:21:36.000Z,281.4
2023-04-07T12:23:03.000Z,281.4
2023-04-07T12:25:09.000Z,281.4
2023-04-07T12:26:35.000Z,281.46
2023-04-07T12:28:42.000Z,281.52
2023-04-07T12:30:08.000Z,281.59
2023-04-07T12:32:14.000Z,281.59
2023-04-07T12:33:41.000Z,281.65
2023-04-07T12:35:47.000Z,281.77
2023-04-07T12:37:13.000Z,281.9
2023-04-07T12:39:20.000Z,281.96
2023-04-07T12:42:11.000Z,282.02
2023-04-07T12:43:37.000Z,281.96
2023-04-07T12:45:43.000Z,281.96
2023-04-07T12:47:10.000Z,282.02
2023-04-07T12:49:16.000Z,282.27
2023-04-07T12:50:43.000Z,282.27
2023-04-07T12:52:49.000Z,282.27
2023-04-07T12:54:15.000Z,282.15
2023-04-07T12:56:21.000Z,282.09
2023-04-07T12:57:48.000Z,281.96
2023-04-07T12:59:54.000Z,281.96
2023-04-07T13:01:21.000Z,282.02
2023-04-07T13:03:27.000Z,282.21
2023-04-07T13:04:54.000Z,282.27
2023-04-07T13:07:00.000Z,282.4
2023-04-07T13:08:27.000Z,282.52
2023-04-07T13:10:33.000Z,282.59
2023-04-07T13:11:59.000Z,282.59
2023-04-07T13:14:05.000Z,282.59
2023-04-07T13:15:32.000Z,282.65
2023-04-07T13:17:38.000Z,282.65
2023-04-07T13:20:29.000Z,282.46
2023-04-07T13:21:56.000Z,282.4
2023-04-07T13:24:02.000Z,282.27
2023-04-07T13:25:28.000Z,282.34
2023-04-07T13:27:34.000Z,282.21
2023-04-07T13:29:01.000Z,282.34
2023-04-07T13:31:07.000Z,282.27
2023-04-07T13:32:34.000Z,282.34
2023-04-07T13:34:40.000Z,282.46
2023-04-07T13:36:06.000Z,282.52
2023-04-07T13:38:13.000Z,282.59
2023-04-07T13:39:39.000Z,282.59
2023-04-07T13:41:45.000Z,282.52
2023-04-07T13:43:12.000Z,282.46
2023-04-07T13:45:18.000Z,282.59
2023-04-07T13:46:44.000Z,282.71
2023-04-07T13:48:51.000Z,282.77
2023-04-07T13:50:17.000Z,282.9
2023-04-07T13:52:23.000Z,282.96
2023-04-07T13:53:50.000Z,282.9
2023-04-07T13:55:56.000Z,282.96
2023-04-07T13:58:47.000Z,282.9
2023-04-07T14:00:14.000Z,282.9
2023-04-07T14:02:20.000Z,282.9
2023-04-07T14:05:53.000Z,282.84
2023-04-07T14:07:19.000Z,282.9
2023-04-07T14:09:25.000Z,282.96
2023-04-07T14:10:52.000Z,282.9
2023-04-07T14:12:58.000Z,282.84
2023-04-07T14:14:24.000Z,282.84
2023-04-07T14:16:31.000Z,282.96
2023-04-07T14:17:57.000Z,282.9
2023-04-07T14:20:03.000Z,282.96
2023-04-07T14:21:30.000Z,283.09
2023-04-07T14:23:36.000Z,283.15
2023-04-07T14:25:02.000Z,283.21
2023-04-07T14:27:09.000Z,282.9
2023-04-07T14:28:35.000Z,282.84
2023-04-07T14:30:41.000Z,282.9
2023-04-07T14:32:08.000Z,282.77
2023-04-07T14:34:14.000Z,282.71
2023-04-07T14:37:05.000Z,282.65
2023-04-07T14:38:31.000Z,282.59
2023-04-07T14:40:39.000Z,282.59
2023-04-07T14:42:05.000Z,282.77
2023-04-07T14:44:11.000Z,282.52
2023-04-07T14:45:38.000Z,282.52
2023-04-07T14:47:44.000Z,282.59
2023-04-07T14:49:11.000Z,282.71
2023-04-07T14:51:17.000Z,282.71
2023-04-07T14:52:43.000Z,282.77
2023-04-07T14:54:49.000Z,282.71
2023-04-07T14:56:16.000Z,282.77
2023-04-07T14:58:22.000Z,282.77
2023-04-07T14:59:49.000Z,282.71
2023-04-07T15:01:55.000Z,282.71
2023-04-07T15:03:21.000Z,282.65
2023-04-07T15:05:28.000Z,282.59
2023-04-07T15:06:54.000Z,282.59
2023-04-07T15:09:00.000Z,282.77
2023-04-07T15:10:27.000Z,282.84
2023-04-07T15:12:33.000Z,282.77
2023-04-07T15:15:25.000Z,282.9
2023-04-07T15:16:51.000Z,282.84
2023-04-07T15:18:57.000Z,282.9
2023-04-07T15:20:24.000Z,283.02
2023-04-07T15:22:30.000Z,283.02
2023-04-07T15:23:56.000Z,283.02
2023-04-07T15:26:02.000Z,282.9
2023-04-07T15:27:29.000Z,282.96
2023-04-07T15:29:35.000Z,283.09
2023-04-07T15:31:02.000Z,283.02
2023-04-07T15:33:08.000Z,282.84
2023-04-07T15:34:34.000Z,282.77
2023-04-07T15:36:40.000Z,282.71
2023-04-07T15:38:07.000Z,282.71
2023-04-07T15:40:13.000Z,282.71
2023-04-07T15:41:39.000Z,282.84
2023-04-07T15:43:46.000Z,282.84
2023-04-07T15:45:12.000Z,282.84
2023-04-07T15:47:19.000Z,282.77
2023-04-07T15:48:45.000Z,282.71
2023-04-07T15:50:51.000Z,282.71
2023-04-07T15:53:42.000Z,282.59
2023-04-07T15:55:09.000Z,282.59
2023-04-07T15:57:15.000Z,282.71
2023-04-07T15:58:41.000Z,282.77
2023-04-07T16:00:48.000Z,282.65
2023-04-07T16:02:14.000Z,282.65
2023-04-07T16:04:20.000Z,282.59
2023-04-07T16:05:47.000Z,282.59
2023-04-07T16:07:53.000Z,282.65
2023-04-07T16:09:20.000Z,282.59
2023-04-07T16:11:26.000Z,282.46
2023-04-07T16:12:52.000Z,282.52
2023-04-07T16:14:58.000Z,282.34
2023-04-07T16:16:25.000Z,282.34
2023-04-07T16:18:31.000Z,282.34
2023-04-07T16:19:57.000Z,282.34
2023-04-07T16:22:03.000Z,282.34
2023-04-07T16:23:30.000Z,282.27
2023-04-07T16:25:36.000Z,282.21
2023-04-07T16:27:03.000Z,282.27
2023-04-07T16:29:09.000Z,282.21
2023-04-07T16:32:00.000Z,282.27
2023-04-07T16:33:26.000Z,282.21
2023-04-07T16:35:33.000Z,282.21
2023-04-07T16:36:59.000Z,282.27
2023-04-07T16:39:05.000Z,282.27
2023-04-07T16:40:32.000Z,282.27
2023-04-07T16:42:38.000Z,282.21
2023-04-07T16:44:04.000Z,282.27
2023-04-07T16:46:11.000Z,282.21
2023-04-07T16:47:37.000Z,282.27
2023-04-07T16:49:44.000Z,282.27
2023-04-07T16:51:10.000Z,282.21
2023-04-07T16:53:16.000Z,282.27
2023-04-07T16:54:45.000Z,282.27
2023-04-07T16:56:51.000Z,282.21
2023-04-07T16:58:18.000Z,282.21
2023-04-07T17:00:24.000Z,282.21
2023-04-07T17:01:50.000Z,282.21
2023-04-07T17:03:57.000Z,282.21
2023-04-07T17:05:23.000Z,282.21
2023-04-07T17:07:29.000Z,282.15
2023-04-07T17:10:20.000Z,282.15
2023-04-07T17:11:47.000Z,282.21
2023-04-07T17:13:53.000Z,282.15
2023-04-07T17:15:22.000Z,282.09
2023-04-07T17:17:28.000Z,282.09
2023-04-07T17:18:54.000Z,282.15
2023-04-07T17:21:00.000Z,282.09
2023-04-07T17:22:27.000Z,282.09
2023-04-07T17:24:33.000Z,282.02
2023-04-07T17:26:00.000Z,282.02
2023-04-07T17:28:06.000Z,282.02
2023-04-07T17:29:32.000Z,281.96
2023-04-07T17:31:39.000Z,282.02
2023-04-07T17:33:05.000Z,281.96
2023-04-07T17:35:11.000Z,281.96
2023-04-07T17:36:38.000Z,281.96
2023-04-07T17:38:44.000Z,281.9
2023-04-07T17:40:11.000Z,281.9
2023-04-07T17:42:17.000Z,281.84
2023-04-07T17:43:43.000Z,281.84
2023-04-07T17:45:49.000Z,281.77
2023-04-07T17:48:40.000Z,281.77
2023-04-07T17:50:07.000Z,281.77
2023-04-07T17:52:13.000Z,281.71
2023-04-07T17:53:39.000Z,281.65
2023-04-07T17:55:45.000Z,281.71
2023-04-07T17:57:12.000Z,281.59
2023-04-07T17:59:18.000Z,281.52
2023-04-07T18:00:45.000Z,281.4
2023-04-07T18:02:51.000Z,281.4
2023-04-07T18:04:18.000Z,281.34
2023-04-07T18:06:24.000Z,281.34
2023-04-07T18:07:51.000Z,281.34
2023-04-07T18:09:57.000Z,281.27
2023-04-07T18:11:23.000Z,281.21
2023-04-07T18:13:29.000Z,281.15
2023-04-07T18:14:56.000Z,281.15
2023-04-07T18:17:02.000Z,281.02
2023-04-07T18:18:29.000Z,280.96
2023-04-07T18:20:35.000Z,280.96
2023-04-07T18:22:01.000Z,280.96
2023-04-07T18:24:08.000Z,280.96
2023-04-07T18:26:59.000Z,280.71
2023-04-07T18:28:26.000Z,280.65
2023-04-07T18:30:32.000Z,280.59
2023-04-07T18:31:58.000Z,280.46
2023-04-07T18:34:04.000Z,280.34
2023-04-07T18:35:31.000Z,280.15
2023-04-07T18:37:37.000Z,280.21
2023-04-07T18:39:04.000Z,280.21
2023-04-07T18:41:10.000Z,280.15
2023-04-07T18:42:36.000Z,280.09
2023-04-07T18:44:42.000Z,280.02
2023-04-07T18:46:09.000Z,279.96
2023-04-07T18:48:15.000Z,280.02
2023-04-07T18:49:42.000Z,280.09
2023-04-07T18:51:48.000Z,280.02
2023-04-07T18:53:14.000Z,279.96
2023-04-07T18:55:20.000Z,279.9
2023-04-07T18:56:47.000Z,279.9
2023-04-07T18:58:53.000Z,279.84
2023-04-07T19:00:20.000Z,279.77
2023-04-07T19:02:26.000Z,279.71
2023-04-07T19:05:17.000Z,279.77
2023-04-07T19:06:48.000Z,279.77
2023-04-07T19:08:54.000Z,279.59
2023-04-07T19:10:21.000Z,279.59
2023-04-07T19:12:27.000Z,279.27
2023-04-07T19:13:54.000Z,279.27
2023-04-07T19:16:00.000Z,279.02
2023-04-07T19:17:26.000Z,279.09
2023-04-07T19:19:32.000Z,279.02
2023-04-07T19:20:59.000Z,279.02
2023-04-07T19:23:05.000Z,278.9
2023-04-07T19:24:32.000Z,278.84
2023-04-07T19:26:38.000Z,278.84
2023-04-07T19:28:04.000Z,278.77
2023-04-07T19:30:10.000Z,278.65
2023-04-07T19:31:37.000Z,278.59
2023-04-07T19:33:43.000Z,278.59
2023-04-07T19:35:10.000Z,278.46
2023-04-07T19:37:16.000Z,278.27
2023-04-07T19:38:43.000Z,278.21
2023-04-07T19:40:49.000Z,278.15
2023-04-07T19:43:40.000Z,278.15
2023-04-07T19:45:06.000Z,278.21
2023-04-07T19:47:12.000Z,278.21
2023-04-07T19:48:39.000Z,278.27
2023-04-07T19:50:45.000Z,278.34
2023-04-07T19:52:11.000Z,278.27
2023-04-07T19:54:18.000Z,278.09
2023-04-07T19:55:44.000Z,278.15
2023-04-07T19:57:50.000Z,278.02
2023-04-07T19:59:17.000Z,277.96
2023-04-07T20:01:23.000Z,277.96
2023-04-07T20:02:49.000Z,277.84
2023-04-07T20:04:56.000Z,277.71
2023-04-07T20:06:22.000Z,277.65
2023-04-07T20:08:28.000Z,277.65
2023-04-07T20:09:55.000Z,277.65
2023-04-07T20:12:01.000Z,277.52
2023-04-07T20:13:27.000Z,277.46
2023-04-07T20:15:33.000Z,277.4
2023-04-07T20:17:00.000Z,277.4
2023-04-07T20:19:06.000Z,277.46
2023-04-07T20:21:57.000Z,277.59
2023-04-07T20:23:24.000Z,277.59
2023-04-07T20:25:30.000Z,277.4
2023-04-07T20:26:57.000Z,277.52
2023-04-07T20:29:03.000Z,277.46
2023-04-07T20:30:29.000Z,277.52
2023-04-07T20:32:35.000Z,277.34
2023-04-07T20:34:02.000Z,277.27
2023-04-07T20:36:08.000Z,277.15
2023-04-07T20:37:34.000Z,277.15
2023-04-07T20:39:41.000Z,277.02
2023-04-07T20:41:07.000Z,276.84
2023-04-07T20:43:13.000Z,276.77
2023-04-07T20:44:40.000Z,276.77
2023-04-07T20:46:46.000Z,276.84
2023-04-07T20:48:12.000Z,276.9
2023-04-07T20:50:18.000Z,277.09
2023-04-07T20:51:45.000Z,277.02
2023-04-07T20:53:51.000Z,276.77
2023-04-07T20:55:18.000Z,276.71
2023-04-07T20:57:24.000Z,276.65
2023-04-07T21:00:15.000Z,276.52
2023-04-07T21:01:43.000Z,276.52
2023-04-07T21:03:49.000Z,276.59
2023-04-07T21:05:16.000Z,276.59
2023-04-07T21:07:22.000Z,276.52
2023-04-07T21:08:49.000Z,276.52
2023-04-07T21:10:55.000Z,276.46
2023-04-07T21:12:21.000Z,276.46
2023-04-07T21:14:27.000Z,276.34
2023-04-07T21:15:54.000Z,276.27
2023-04-07T21:18:00.000Z,276.21
2023-04-07T21:19:27.000Z,276.21
2023-04-07T21:21:33.000Z,276.09
2023-04-07T21:23:00.000Z,276.09
2023-04-07T21:25:06.000Z,276.09
2023-04-07T21:26:32.000Z,276.09
2023-04-07T21:28:38.000Z,275.96
2023-04-07T21:30:05.000Z,275.96
2023-04-07T21:32:11.000Z,276.02
2023-04-07T21:33:37.000Z,276.09
2023-04-07T21:35:43.000Z,276.09
2023-04-07T21:38:38.000Z,276.02
2023-04-07T21:40:04.000Z,276.09
2023-04-07T21:42:10.000Z,275.96
2023-04-07T21:43:37.000Z,275.84
2023-04-07T21:45:43.000Z,275.71
2023-04-07T21:47:09.000Z,275.71
2023-04-07T21:49:15.000Z,275.77
2023-04-07T21:50:42.000Z,275.77
2023-04-07T21:52:48.000Z,275.77
2023-04-07T21:54:15.000Z,275.77
2023-04-07T21:56:21.000Z,275.77
2023-04-07T21:57:47.000Z,275.77
2023-04-07T21:59:53.000Z,275.71
2023-04-07T22:01:20.000Z,275.65
2023-04-07T22:03:26.000Z,275.65
2023-04-07T22:04:53.000Z,275.59
2023-04-07T22:06:59.000Z,275.52
2023-04-07T22:08:25.000Z,275.46
2023-04-07T22:10:32.000Z,275.46
2023-04-07T22:11:58.000Z,275.52
2023-04-07T22:14:04.000Z,275.34
2023-04-07T22:16:55.000Z,275.34
2023-04-07T22:18:22.000Z,275.27
2023-04-07T22:20:28.000Z,275.27
2023-04-07T22:21:55.000Z,275.27
2023-04-07T22:24:01.000Z,275.21
2023-04-07T22:25:27.000Z,275.27
2023-04-07T22:27:33.000Z,275.34
2023-04-07T22:29:00.000Z,275.27
2023-04-07T22:31:06.000Z,275.27
2023-04-07T22:32:33.000Z,275.34
2023-04-07T22:34:39.000Z,275.34
2023-04-07T22:36:05.000Z,275.34
2023-04-07T22:38:11.000Z,275.34
2023-04-07T22:39:38.000Z,275.27
2023-04-07T22:41:44.000Z,275.27
2023-04-07T22:43:11.000Z,275.27
2023-04-07T22:45:17.000Z,275.21
2023-04-07T22:46:43.000Z,275.27
2023-04-07T22:48:49.000Z,275.21
2023-04-07T22:50:16.000Z,275.34
2023-04-07T22:52:22.000Z,275.21